Weather History for Harrisburg, IL

Change the Weather History Date:

Thursday, April 26, 2012

  Actual Average (KMWA) Record (KMWA)
Temperature  
Mean Temperature 70 °F -  
Max Temperature 80 °F 69 °F 87 °F (1986)
Min Temperature 59 °F 46 °F 34 °F (1976)
Cooling Degree Days 4    
Growing Degree Days 20 (Base 50)    
Moisture  
Dew Point 57 °F    
Average Humidity 60    
Maximum Humidity 94    
Minimum Humidity 39    
Precipitation  
Precipitation 0.03 in - - ()
Sea Level Pressure  
Sea Level Pressure 29.82 in    
Wind  
Wind Speed 9 mph (NNW)    
Max Wind Speed 18 mph    
Max Gust Speed 23 mph    
Visibility 10 miles    
Events Thunderstorm    
Averages and records for this station are not official NWS values.
T = Trace of Precipitation, MM = Missing Value Source: NWS Daily Summary

Daily Weather History Graph

Daily Weather History Graph

Search for Another Location

Airport:

Trip Planner

Search our weather history database for the weather conditions in past years. The results will help you decide how hot, cold, wet, or windy it might be!

Date:

Astronomy

Apr. 26, 2012 Rise Set
Actual Time 6:03 AM CDT 7:40 PM CDT
Civil Twilight 5:35 AM CDT 8:08 PM CDT
Nautical Twilight 5:02 AM CDT 8:42 PM CDT
Astronomical Twilight 4:26 AM CDT 9:17 PM CDT
Moon 9:45 AM CDT (4/26) No Moon Set
Length of Visible Light 14h 32m
Length of Day
13h 36m
Waxing Crescent, 24% of the Moon is Illuminated
Apr 26
Waxing Crescent
Apr 29
First Quarter
May 5
Full
May 12
Last Quarter
May 20
New

Hourly Weather History & Observations

Time (CDT) Temp. Heat Index Dew Point Humidity Pressure Visibility Wind Dir Wind Speed Gust Speed Precip Events Conditions
12:15 AM 73.4 °F - 59.0 °F 61% 29.65 in 10.0 mi SW 15.0 mph - N/A Thunderstorm Clear
12:35 AM 73.4 °F - 59.0 °F 61% 29.64 in 10.0 mi SW 15.0 mph 23.0 mph N/A   Clear
12:55 AM 73.4 °F - 59.0 °F 61% 29.65 in 10.0 mi SW 13.8 mph - N/A   Clear
1:15 AM 71.6 °F - 59.0 °F 64% 29.66 in 10.0 mi WSW 10.4 mph 18.4 mph N/A   Clear
1:35 AM 71.6 °F - 60.8 °F 69% 29.66 in 10.0 mi WSW 10.4 mph - N/A   Clear
1:55 AM 71.6 °F - 60.8 °F 69% 29.65 in 10.0 mi SW 8.1 mph - N/A Thunderstorm Clear
2:35 AM 71.6 °F - 60.8 °F 69% 29.68 in 10.0 mi North 5.8 mph 9.2 mph N/A Thunderstorm Thunderstorm
2:55 AM 71.6 °F - 60.8 °F 69% 29.68 in 10.0 mi WSW 4.6 mph - N/A   Mostly Cloudy
3:15 AM 69.8 °F - 60.8 °F 73% 29.68 in 10.0 mi SSW 5.8 mph - N/A   Scattered Clouds
3:35 AM 68.0 °F - 60.8 °F 78% 29.68 in 10.0 mi SSW 6.9 mph - N/A   Clear
3:55 AM 68.0 °F - 60.8 °F 78% 29.67 in 10.0 mi SW 5.8 mph - N/A   Clear
4:15 AM 68.0 °F - 60.8 °F 78% 29.67 in 10.0 mi SW 6.9 mph - N/A   Clear
4:35 AM 68.0 °F - 60.8 °F 78% 29.67 in 10.0 mi WSW 8.1 mph - N/A   Clear
4:55 AM 68.0 °F - 60.8 °F 78% 29.68 in 10.0 mi WSW 5.8 mph - N/A   Clear
5:15 AM 68.0 °F - 60.8 °F 78% 29.68 in 10.0 mi WSW 5.8 mph - N/A   Clear
5:35 AM 66.2 °F - 60.8 °F 83% 29.68 in 10.0 mi WSW 4.6 mph - N/A   Clear
5:55 AM 64.4 °F - 60.8 °F 88% 29.68 in 10.0 mi WSW 5.8 mph - N/A   Clear
6:15 AM 66.2 °F - 62.6 °F 88% 29.70 in 10.0 mi WSW 6.9 mph - N/A   Clear
6:35 AM 64.4 °F - 62.6 °F 94% 29.71 in 10.0 mi WSW 5.8 mph - N/A   Clear
6:55 AM 66.2 °F - 62.6 °F 88% 29.72 in 10.0 mi WSW 4.6 mph - N/A   Clear
7:15 AM 68.0 °F - 62.6 °F 83% 29.73 in 10.0 mi West 4.6 mph - N/A   Clear
7:35 AM 69.8 °F - 64.4 °F 83% 29.74 in 10.0 mi WSW 3.5 mph - N/A   Clear
7:55 AM 71.6 °F - 64.4 °F 78% 29.75 in 10.0 mi West 8.1 mph - N/A   Clear
8:15 AM 71.6 °F - 64.4 °F 78% 29.76 in 10.0 mi West 6.9 mph - N/A   Clear
8:35 AM 73.4 °F - 64.4 °F 73% 29.77 in 10.0 mi WNW 8.1 mph - N/A   Clear
8:55 AM 73.4 °F - 64.4 °F 73% 29.77 in 10.0 mi NW 10.4 mph - N/A   Clear
9:15 AM 75.2 °F - 64.4 °F 69% 29.78 in 10.0 mi NW 6.9 mph - N/A   Clear
9:35 AM 77.0 °F - 62.6 °F 61% 29.79 in 10.0 mi NNW 8.1 mph - N/A   Clear
9:55 AM 77.0 °F - 60.8 °F 57% 29.80 in 10.0 mi North 6.9 mph - N/A   Clear
10:15 AM 77.0 °F - 60.8 °F 57% 29.81 in 10.0 mi North 9.2 mph - N/A   Clear
10:35 AM 77.0 °F - 60.8 °F 57% 29.81 in 10.0 mi North 5.8 mph - N/A   Clear
10:55 AM 78.8 °F - 60.8 °F 54% 29.82 in 10.0 mi North 8.1 mph - N/A   Clear
11:15 AM 78.8 °F - 60.8 °F 54% 29.83 in 10.0 mi NNE 10.4 mph - N/A   Clear
11:35 AM 78.8 °F - 62.6 °F 57% 29.83 in 10.0 mi NNW 8.1 mph - N/A   Clear
11:55 AM 78.8 °F - 60.8 °F 54% 29.84 in - North 9.2 mph - 0.03 in   Clear
12:15 PM 78.8 °F - 62.6 °F 57% 29.84 in 10.0 mi NNW 11.5 mph - N/A   Clear
12:35 PM 78.8 °F - 60.8 °F 54% 29.84 in 10.0 mi NW 12.7 mph - N/A   Clear
12:55 PM 78.8 °F - 60.8 °F 54% 29.85 in 10.0 mi NW 9.2 mph 17.3 mph N/A   Clear
1:15 PM 78.8 °F - 57.2 °F 47% 29.85 in 10.0 mi North 9.2 mph - N/A   Clear
1:35 PM 80.6 °F 80.5 °F 55.4 °F 42% 29.85 in 10.0 mi North 12.7 mph - N/A   Clear
1:55 PM 80.6 °F 80.3 °F 53.6 °F 39% 29.86 in 10.0 mi NNW 13.8 mph 18.4 mph N/A   Clear
2:15 PM 80.6 °F 80.5 °F 55.4 °F 42% 29.87 in 10.0 mi North 11.5 mph 19.6 mph N/A   Clear
2:35 PM 80.6 °F 80.8 °F 57.2 °F 45% 29.87 in 10.0 mi North 11.5 mph - N/A   Clear
2:55 PM 80.6 °F 80.5 °F 55.4 °F 42% 29.87 in 10.0 mi NW 5.8 mph - N/A   Clear
3:15 PM 78.8 °F - 53.6 °F 42% 29.87 in 10.0 mi North 10.4 mph 17.3 mph N/A   Scattered Clouds
3:35 PM 80.6 °F 80.5 °F 55.4 °F 42% 29.87 in 10.0 mi North 6.9 mph - N/A   Scattered Clouds
3:55 PM 80.6 °F 80.3 °F 53.6 °F 39% 29.87 in 10.0 mi North 10.4 mph 18.4 mph N/A   Clear
4:15 PM 78.8 °F - 53.6 °F 42% 29.87 in 10.0 mi North 9.2 mph - N/A   Clear
4:35 PM 78.8 °F - 53.6 °F 42% 29.88 in 10.0 mi North 11.5 mph 17.3 mph N/A   Scattered Clouds
4:55 PM 78.8 °F - 53.6 °F 42% 29.88 in 10.0 mi North 10.4 mph - N/A   Scattered Clouds
5:15 PM 77.0 °F - 53.6 °F 44% 29.88 in 10.0 mi North 9.2 mph 18.4 mph N/A   Clear
5:35 PM 77.0 °F - 53.6 °F 44% 29.89 in 10.0 mi North 5.8 mph 17.3 mph N/A   Scattered Clouds
5:55 PM 77.0 °F - 53.6 °F 44% 29.90 in 10.0 mi NNW 10.4 mph 16.1 mph N/A   Scattered Clouds
6:15 PM 75.2 °F - 51.8 °F 44% 29.90 in 10.0 mi North 9.2 mph - N/A   Scattered Clouds
6:35 PM 73.4 °F - 53.6 °F 50% 29.90 in 10.0 mi North 4.6 mph - N/A   Clear
6:55 PM 71.6 °F - 53.6 °F 53% 29.90 in 10.0 mi North 4.6 mph - N/A   Clear
7:15 PM 71.6 °F - 53.6 °F 53% 29.91 in 10.0 mi North 3.5 mph - N/A   Clear
7:35 PM 71.6 °F - 53.6 °F 53% 29.91 in 10.0 mi North 5.8 mph - N/A   Clear
7:55 PM 69.8 °F - 53.6 °F 56% 29.92 in 10.0 mi North 6.9 mph - N/A   Clear
8:15 PM 69.8 °F - 53.6 °F 56% 29.93 in 10.0 mi North 5.8 mph - N/A   Clear
8:35 PM 69.8 °F - 53.6 °F 56% 29.93 in 10.0 mi North 6.9 mph - N/A   Clear
8:55 PM 68.0 °F - 51.8 °F 56% 29.95 in 10.0 mi NNE 18.4 mph 21.9 mph N/A   Clear
9:15 PM 64.4 °F - 50.0 °F 59% 29.97 in 10.0 mi NE 15.0 mph 21.9 mph N/A   Clear
9:35 PM 64.4 °F - 46.4 °F 52% 29.99 in 10.0 mi NE 13.8 mph 21.9 mph N/A   Clear
9:55 PM 62.6 °F - 46.4 °F 55% 30.00 in 10.0 mi NNE 17.3 mph 20.7 mph N/A   Clear
10:15 PM 62.6 °F - 46.4 °F 55% 30.01 in 10.0 mi NE 11.5 mph 21.9 mph N/A   Clear
10:35 PM 60.8 °F - 44.6 °F 55% 30.01 in 10.0 mi NE 9.2 mph - N/A   Clear
10:55 PM 60.8 °F - 46.4 °F 59% 30.03 in 10.0 mi ENE 8.1 mph - N/A   Clear
11:15 PM 60.8 °F - 44.6 °F 55% 30.04 in 10.0 mi NE 10.4 mph - N/A   Clear
11:35 PM 59.0 °F - 42.8 °F 55% 30.05 in 10.0 mi ENE 9.2 mph - N/A   Clear
11:55 PM 59.0 °F - 41.0 °F 51% 30.05 in 10.0 mi ENE 9.2 mph - N/A   Clear